createdAt,value
2023-01-25T00:01:30.105Z,12.17
2023-01-25T00:04:16.550Z,10.57
2023-01-25T00:07:03.024Z,9.30
2023-01-25T00:09:49.551Z,10.23
2023-01-25T00:12:36.258Z,9.77
2023-01-25T00:15:24.398Z,10.93
2023-01-25T00:18:10.761Z,11.07
2023-01-25T00:20:57.156Z,8.33
2023-01-25T00:23:43.613Z,8.90
2023-01-25T00:26:31.684Z,8.97
2023-01-25T00:29:18.808Z,8.30
2023-01-25T00:32:34.547Z,9.23
2023-01-25T00:35:22.533Z,8.47
2023-01-25T00:38:28.695Z,9.73
2023-01-25T00:41:15.456Z,10.40
2023-01-25T00:44:01.793Z,10.00
2023-01-25T00:46:48.710Z,10.83
2023-01-25T00:49:37.766Z,10.60
2023-01-25T00:52:24.481Z,10.83
2023-01-25T00:55:11.241Z,10.17
2023-01-25T00:57:57.645Z,9.50
2023-01-25T01:00:44.144Z,9.17
2023-01-25T01:03:31.244Z,10.57
2023-01-25T01:06:18.843Z,9.23
2023-01-25T01:09:06.468Z,10.33
2023-01-25T01:11:53.480Z,11.63
2023-01-25T01:14:40.304Z,9.43
2023-01-25T01:17:26.942Z,8.30
2023-01-25T01:20:14.237Z,11.40
2023-01-25T01:23:01.920Z,7.77
2023-01-25T01:25:48.633Z,8.50
2023-01-25T01:28:36.354Z,10.20
2023-01-25T01:31:24.159Z,7.73
2023-01-25T01:34:14.277Z,9.43
2023-01-25T01:37:00.766Z,9.63
2023-01-25T01:39:48.443Z,13.50
2023-01-25T01:42:34.833Z,8.93
2023-01-25T01:45:50.094Z,10.93
2023-01-25T01:48:41.298Z,8.93
2023-01-25T01:51:36.238Z,10.83
2023-01-25T01:54:26.423Z,8.90
2023-01-25T01:57:17.361Z,8.17
2023-01-25T02:00:09.677Z,9.90
2023-01-25T02:02:57.214Z,10.57
2023-01-25T02:05:53.709Z,10.70
2023-01-25T02:08:41.007Z,9.00
2023-01-25T02:11:28.924Z,9.67
2023-01-25T02:14:18.674Z,8.30
2023-01-25T02:17:05.626Z,8.47
2023-01-25T02:19:56.902Z,8.47
2023-01-25T02:22:53.029Z,11.67
2023-01-25T02:25:41.407Z,10.43
2023-01-25T02:28:31.714Z,10.20
2023-01-25T02:31:18.899Z,9.07
2023-01-25T02:34:05.465Z,8.57
2023-01-25T02:36:51.883Z,10.87
2023-01-25T02:39:38.932Z,9.67
2023-01-25T02:42:26.748Z,9.70
2023-01-25T02:45:18.804Z,11.23
2023-01-25T02:48:05.847Z,9.43
2023-01-25T02:50:52.753Z,9.87
2023-01-25T02:53:39.508Z,6.53
2023-01-25T02:56:26.989Z,9.40
2023-01-25T02:59:15.169Z,8.70
2023-01-25T03:02:02.360Z,10.87
2023-01-25T03:04:49.005Z,9.07
2023-01-25T03:07:35.195Z,9.30
2023-01-25T03:10:21.703Z,11.00
2023-01-25T03:13:07.975Z,10.37
2023-01-25T03:16:00.666Z,12.73
2023-01-25T03:18:47.509Z,10.10
2023-01-25T03:21:33.915Z,8.83
2023-01-25T03:24:20.405Z,10.17
2023-01-25T03:27:14.329Z,11.33
2023-01-25T03:30:00.875Z,11.57
2023-01-25T03:32:48.719Z,12.63
2023-01-25T03:35:35.617Z,12.80
2023-01-25T03:38:22.304Z,9.00
2023-01-25T03:41:10.285Z,9.40
2023-01-25T03:43:57.168Z,11.80
2023-01-25T03:46:44.039Z,9.53
2023-01-25T03:49:32.140Z,8.13
2023-01-25T03:52:19.025Z,8.00
2023-01-25T03:55:07.067Z,9.73
2023-01-25T03:57:54.092Z,8.63
2023-01-25T04:00:40.536Z,10.20
2023-01-25T04:03:29.477Z,10.67
2023-01-25T04:06:17.913Z,10.60
2023-01-25T04:09:04.872Z,9.07
2023-01-25T04:11:52.075Z,10.83
2023-01-25T04:14:44.394Z,13.33
2023-01-25T04:17:31.469Z,10.53
2023-01-25T04:20:18.049Z,12.03
2023-01-25T04:23:07.114Z,12.07
2023-01-25T04:25:54.617Z,9.10
2023-01-25T04:28:41.343Z,10.30
2023-01-25T04:31:27.872Z,8.07
2023-01-25T04:34:14.670Z,10.17
2023-01-25T04:37:01.188Z,11.13
2023-01-25T04:39:48.974Z,8.90
2023-01-25T04:42:35.205Z,11.20
2023-01-25T04:45:21.698Z,10.57
2023-01-25T04:48:10.703Z,14.13
2023-01-25T04:50:57.351Z,12.80
2023-01-25T04:53:43.795Z,14.40
2023-01-25T04:56:31.552Z,11.97
2023-01-25T04:59:17.781Z,14.73
2023-01-25T05:02:04.199Z,9.17
2023-01-25T05:04:50.624Z,14.43
2023-01-25T05:07:36.968Z,11.03
2023-01-25T05:10:23.572Z,12.53
2023-01-25T05:13:11.291Z,11.73
2023-01-25T05:15:57.921Z,12.17
2023-01-25T05:18:48.861Z,11.30
2023-01-25T05:21:53.270Z,10.37
2023-01-25T05:24:41.654Z,12.93
2023-01-25T05:27:27.221Z,11.87
2023-01-25T05:30:15.454Z,10.90
2023-01-25T05:33:01.999Z,9.83
2023-01-25T05:35:48.360Z,13.20
2023-01-25T05:38:34.827Z,12.37
2023-01-25T05:41:21.254Z,10.60
2023-01-25T05:44:07.722Z,13.93
2023-01-25T05:46:55.783Z,10.73
2023-01-25T05:49:42.250Z,12.27
2023-01-25T05:52:28.573Z,11.87
2023-01-25T05:55:15.702Z,15.23
2023-01-25T05:58:02.374Z,14.20
2023-01-25T06:00:48.790Z,14.73
2023-01-25T06:03:36.612Z,11.97
2023-01-25T06:06:23.549Z,11.23
2023-01-25T06:09:12.220Z,19.40
2023-01-25T06:11:58.615Z,13.33
2023-01-25T06:14:44.979Z,13.50
2023-01-25T06:17:31.257Z,16.67
2023-01-25T06:20:19.679Z,15.47
2023-01-25T06:23:06.118Z,16.00
2023-01-25T06:25:53.812Z,14.03
2023-01-25T06:28:40.831Z,13.40
2023-01-25T06:31:27.796Z,13.60
2023-01-25T06:34:14.757Z,10.53
2023-01-25T06:37:02.478Z,14.23
2023-01-25T06:39:48.708Z,13.40
2023-01-25T06:42:35.108Z,11.53
2023-01-25T06:45:21.566Z,13.30
2023-01-25T06:48:08.419Z,9.83
2023-01-25T06:50:56.531Z,11.73
2023-01-25T06:53:45.508Z,13.37
2023-01-25T06:56:32.732Z,13.60
2023-01-25T06:59:19.367Z,11.03
2023-01-25T07:02:06.236Z,13.93
2023-01-25T07:04:52.869Z,10.37
2023-01-25T07:07:39.453Z,11.20
2023-01-25T07:10:27.110Z,8.90
2023-01-25T07:13:13.386Z,11.47
2023-01-25T07:16:01.244Z,15.13
2023-01-25T07:18:48.311Z,10.33
2023-01-25T07:21:35.207Z,8.30
2023-01-25T07:24:21.814Z,12.80
2023-01-25T07:27:09.812Z,10.43
2023-01-25T07:29:56.300Z,9.40
2023-01-25T07:32:42.655Z,13.43
2023-01-25T07:35:29.075Z,9.87
2023-01-25T07:38:15.526Z,11.37
2023-01-25T07:41:02.225Z,10.57
2023-01-25T07:43:50.272Z,11.67
2023-01-25T07:46:37.047Z,12.20
2023-01-25T07:49:23.428Z,10.37
2023-01-25T07:52:09.889Z,12.10
2023-01-25T07:54:56.412Z,11.93
2023-01-25T07:57:42.809Z,12.17
2023-01-25T08:00:30.568Z,12.60
2023-01-25T08:03:17.353Z,10.40
2023-01-25T08:06:05.251Z,11.77
2023-01-25T08:08:51.612Z,11.93
2023-01-25T08:11:38.205Z,15.97
2023-01-25T08:14:25.002Z,14.53
2023-01-25T08:17:13.105Z,15.30
2023-01-25T08:20:00.093Z,15.47
2023-01-25T08:22:46.507Z,11.87
2023-01-25T08:25:32.925Z,19.23
2023-01-25T08:28:19.421Z,13.50
2023-01-25T08:31:07.179Z,14.37
2023-01-25T08:33:55.684Z,17.77
2023-01-25T08:36:42.367Z,16.50
2023-01-25T08:39:31.711Z,13.73
2023-01-25T08:42:18.523Z,13.97
2023-01-25T08:45:05.985Z,17.63
2023-01-25T08:47:52.731Z,18.07
2023-01-25T08:50:40.733Z,17.47
2023-01-25T08:53:29.430Z,18.30
2023-01-25T08:56:17.244Z,19.97
2023-01-25T08:59:03.787Z,17.30
2023-01-25T09:01:50.807Z,19.90
2023-01-25T09:04:37.316Z,13.33
2023-01-25T09:07:25.115Z,17.70
2023-01-25T09:10:12.403Z,16.67
2023-01-25T09:12:59.160Z,14.63
2023-01-25T09:15:45.619Z,15.70
2023-01-25T09:18:32.937Z,17.67
2023-01-25T09:21:19.915Z,18.50
2023-01-25T09:24:08.886Z,17.87
2023-01-25T09:26:59.636Z,18.73
2023-01-25T09:30:00.979Z,15.90
2023-01-25T09:32:50.582Z,14.80
2023-01-25T09:35:37.069Z,18.20
2023-01-25T09:38:23.995Z,15.00
2023-01-25T09:41:27.404Z,17.03
2023-01-25T09:44:25.122Z,15.00
2023-01-25T09:47:20.926Z,15.57
2023-01-25T09:50:32.093Z,17.87
2023-01-25T09:53:38.022Z,16.23
2023-01-25T09:56:28.009Z,13.70
2023-01-25T09:59:18.594Z,14.53
2023-01-25T10:02:18.253Z,14.97
2023-01-25T10:05:09.388Z,11.40
2023-01-25T10:08:03.216Z,15.53
2023-01-25T10:10:57.149Z,12.27
2023-01-25T10:13:45.402Z,14.33
2023-01-25T10:16:38.564Z,13.57
2023-01-25T10:19:31.866Z,13.23
2023-01-25T10:22:21.852Z,12.03
2023-01-25T10:25:21.894Z,11.87
2023-01-25T10:28:30.217Z,12.47
2023-01-25T10:31:21.536Z,10.63
2023-01-25T10:34:18.274Z,11.43
2023-01-25T10:37:13.758Z,13.50
2023-01-25T10:40:05.149Z,12.80
2023-01-25T10:42:59.318Z,11.63
2023-01-25T10:45:46.415Z,12.00
2023-01-25T10:48:37.521Z,13.87
2023-01-25T10:51:31.789Z,12.57
2023-01-25T10:54:18.456Z,12.37
2023-01-25T10:57:07.935Z,10.40
2023-01-25T10:59:54.420Z,13.67
2023-01-25T11:02:45.650Z,16.53
2023-01-25T11:05:36.124Z,15.30
2023-01-25T11:08:25.453Z,13.23
2023-01-25T11:11:26.712Z,13.30
2023-01-25T11:14:18.341Z,12.50
2023-01-25T11:17:06.570Z,10.03
2023-01-25T11:20:08.894Z,13.17
2023-01-25T11:22:58.535Z,11.17
2023-01-25T11:25:45.123Z,11.47
2023-01-25T11:28:31.560Z,10.77
2023-01-25T11:31:22.847Z,12.27
2023-01-25T11:34:12.783Z,11.20
2023-01-25T11:37:10.344Z,11.40
2023-01-25T11:40:09.007Z,10.83
2023-01-25T11:43:06.930Z,11.50
2023-01-25T11:46:09.146Z,13.20
2023-01-25T11:49:26.096Z,12.80
2023-01-25T11:52:23.764Z,13.60
2023-01-25T11:55:26.216Z,11.17
2023-01-25T11:58:25.895Z,11.83
2023-01-25T12:01:21.434Z,14.67
2023-01-25T12:04:42.873Z,12.37
2023-01-25T12:07:42.719Z,13.73
2023-01-25T12:10:39.562Z,11.57
2023-01-25T12:13:35.133Z,12.50
2023-01-25T12:16:41.961Z,15.23
2023-01-25T12:19:39.901Z,13.33
2023-01-25T12:22:51.866Z,13.77
2023-01-25T12:25:50.231Z,13.93
2023-01-25T12:28:43.303Z,13.53
2023-01-25T12:31:38.783Z,13.37
2023-01-25T12:34:32.664Z,14.70
2023-01-25T12:37:23.246Z,13.10
2023-01-25T12:40:15.872Z,16.23
2023-01-25T12:43:04.672Z,13.27
2023-01-25T12:45:54.505Z,16.37
2023-01-25T12:48:46.368Z,18.00
2023-01-25T12:51:38.012Z,15.17
2023-01-25T12:54:31.465Z,18.40
2023-01-25T12:57:25.956Z,15.10
2023-01-25T13:00:23.660Z,18.07
2023-01-25T13:03:23.389Z,17.47
2023-01-25T13:06:20.800Z,21.20
2023-01-25T13:09:14.713Z,16.83
2023-01-25T13:12:04.337Z,15.87
2023-01-25T13:14:50.741Z,13.63
2023-01-25T13:17:40.642Z,16.87
2023-01-25T13:20:48.701Z,13.00
2023-01-25T13:23:37.840Z,15.83
2023-01-25T13:26:48.447Z,17.67
2023-01-25T13:29:57.012Z,15.27
2023-01-25T13:33:07.466Z,15.43
2023-01-25T13:35:54.055Z,14.87
2023-01-25T13:38:40.597Z,14.27
2023-01-25T13:41:27.019Z,14.20
2023-01-25T13:44:31.597Z,18.07
2023-01-25T13:47:21.479Z,14.40
2023-01-25T13:50:21.628Z,17.87
2023-01-25T13:53:20.365Z,19.93
2023-01-25T13:56:24.329Z,17.83
2023-01-25T13:59:25.611Z,18.43
2023-01-25T14:02:17.720Z,16.57
2023-01-25T14:05:08.158Z,16.27
2023-01-25T14:07:58.549Z,18.40
2023-01-25T14:10:45.547Z,13.57
2023-01-25T14:13:32.281Z,14.53
2023-01-25T14:16:19.452Z,16.50
2023-01-25T14:19:29.045Z,16.37
2023-01-25T14:22:23.110Z,15.27
2023-01-25T14:25:15.567Z,16.37
2023-01-25T14:28:03.660Z,16.17
2023-01-25T14:30:55.221Z,16.83
2023-01-25T14:33:47.811Z,15.03
2023-01-25T14:36:35.636Z,16.47
2023-01-25T14:39:29.603Z,19.87
2023-01-25T14:42:18.288Z,24.33
2023-01-25T14:45:05.838Z,19.97
2023-01-25T14:47:59.436Z,16.40
2023-01-25T14:50:46.543Z,16.33
2023-01-25T14:53:33.303Z,17.17
2023-01-25T14:56:33.933Z,17.37
2023-01-25T14:59:32.138Z,20.30
2023-01-25T15:02:25.612Z,19.60
2023-01-25T15:05:21.546Z,18.73
2023-01-25T15:08:28.977Z,18.23
2023-01-25T15:11:45.238Z,24.57
2023-01-25T15:14:34.600Z,22.63
2023-01-25T15:17:40.721Z,33.43
2023-01-25T15:20:33.327Z,31.80
2023-01-25T15:23:25.654Z,18.30
2023-01-25T15:26:19.798Z,22.90
2023-01-25T15:29:14.928Z,18.27
2023-01-25T15:32:02.931Z,17.97
2023-01-25T15:34:49.813Z,19.60
2023-01-25T15:37:36.431Z,17.97
2023-01-25T15:40:23.002Z,15.60
2023-01-25T15:43:12.305Z,18.17
2023-01-25T15:45:59.913Z,20.50
2023-01-25T15:48:49.440Z,16.73
2023-01-25T15:51:36.011Z,17.63
2023-01-25T15:54:22.811Z,14.00
2023-01-25T15:57:19.287Z,15.50
2023-01-25T16:00:07.702Z,14.93
2023-01-25T16:02:54.264Z,16.40
2023-01-25T16:05:42.057Z,15.63
2023-01-25T16:08:29.305Z,14.10
2023-01-25T16:11:16.032Z,13.87
2023-01-25T16:14:02.559Z,15.50
2023-01-25T16:16:51.431Z,14.60
2023-01-25T16:19:38.523Z,15.77
2023-01-25T16:22:26.078Z,11.83
2023-01-25T16:25:14.047Z,15.83
2023-01-25T16:28:00.616Z,15.07
2023-01-25T16:30:47.287Z,12.07
2023-01-25T16:33:34.060Z,12.50
2023-01-25T16:36:22.262Z,15.13
2023-01-25T16:39:16.142Z,11.83
2023-01-25T16:42:02.674Z,13.73
2023-01-25T16:44:49.651Z,13.63
2023-01-25T16:47:35.860Z,11.63
2023-01-25T16:50:24.182Z,11.80
2023-01-25T16:53:10.566Z,13.57
2023-01-25T16:56:00.064Z,11.63
2023-01-25T16:58:47.574Z,15.30
2023-01-25T17:01:34.564Z,18.17
2023-01-25T17:04:21.421Z,13.87
2023-01-25T17:07:10.105Z,15.57
2023-01-25T17:09:56.717Z,11.97
2023-01-25T17:12:45.516Z,13.43
2023-01-25T17:15:32.014Z,15.10
2023-01-25T17:18:18.287Z,18.20
2023-01-25T17:21:06.962Z,19.10
2023-01-25T17:23:53.931Z,17.90
2023-01-25T17:26:40.795Z,17.13
2023-01-25T17:29:29.851Z,17.87
2023-01-25T17:32:16.619Z,22.00
2023-01-25T17:35:04.663Z,18.43
2023-01-25T17:37:54.911Z,20.30
2023-01-25T17:40:41.491Z,19.40
2023-01-25T17:43:28.052Z,17.43
2023-01-25T17:46:18.158Z,20.53
2023-01-25T17:49:06.937Z,22.20
2023-01-25T17:51:53.377Z,22.93
2023-01-25T17:54:40.219Z,21.67
2023-01-25T17:57:26.476Z,23.07
2023-01-25T18:00:13.993Z,22.90
2023-01-25T18:03:02.137Z,23.43
2023-01-25T18:05:48.528Z,23.73
2023-01-25T18:08:34.902Z,24.10
2023-01-25T18:11:24.607Z,25.67
2023-01-25T18:14:15.269Z,26.77
2023-01-25T18:17:02.271Z,22.47
2023-01-25T18:19:50.545Z,24.63
2023-01-25T18:22:37.487Z,26.47
2023-01-25T18:25:33.500Z,27.40
2023-01-25T18:28:20.123Z,28.37
2023-01-25T18:31:07.763Z,27.63
2023-01-25T18:33:54.690Z,25.77
2023-01-25T18:36:42.505Z,27.23
2023-01-25T18:39:29.548Z,29.87
2023-01-25T18:42:16.550Z,29.23
2023-01-25T18:45:03.384Z,28.07
2023-01-25T18:47:49.836Z,26.47
2023-01-25T18:50:36.225Z,26.03
2023-01-25T18:53:24.110Z,33.57
2023-01-25T18:56:14.279Z,29.80
2023-01-25T18:59:01.011Z,31.43
2023-01-25T19:01:47.489Z,30.97
2023-01-25T19:04:33.797Z,32.77
2023-01-25T19:07:20.148Z,33.10
2023-01-25T19:10:08.568Z,33.97
2023-01-25T19:12:55.046Z,34.03
2023-01-25T19:15:41.445Z,32.53
2023-01-25T19:18:30.896Z,40.70
2023-01-25T19:21:18.997Z,32.97
2023-01-25T19:24:06.015Z,37.17
2023-01-25T19:26:55.237Z,39.17
2023-01-25T19:29:41.595Z,35.50
2023-01-25T19:32:27.887Z,39.50
2023-01-25T19:35:14.461Z,33.47
2023-01-25T19:38:01.344Z,36.57
2023-01-25T19:40:47.653Z,37.13
2023-01-25T19:43:35.843Z,36.47
2023-01-25T19:46:25.298Z,36.90
2023-01-25T19:49:13.295Z,40.17
2023-01-25T19:51:59.794Z,39.23
2023-01-25T19:54:46.909Z,37.23
2023-01-25T19:57:33.704Z,33.63
2023-01-25T20:00:23.753Z,37.93
2023-01-25T20:03:16.303Z,39.97
2023-01-25T20:06:04.074Z,39.30
2023-01-25T20:08:50.540Z,39.27
2023-01-25T20:11:37.068Z,40.37
2023-01-25T20:14:23.936Z,38.77
2023-01-25T20:17:11.657Z,38.83
2023-01-25T20:19:58.164Z,37.13
2023-01-25T20:22:44.488Z,40.77
2023-01-25T20:25:31.032Z,43.70
2023-01-25T20:28:17.517Z,40.77
2023-01-25T20:31:04.927Z,40.27
2023-01-25T20:33:54.646Z,37.47
2023-01-25T20:36:42.387Z,39.60
2023-01-25T20:39:28.931Z,38.73
2023-01-25T20:42:15.294Z,37.17
2023-01-25T20:45:01.754Z,39.03
2023-01-25T20:47:48.256Z,37.90
2023-01-25T20:50:36.104Z,41.03
2023-01-25T20:53:22.745Z,38.33
2023-01-25T20:56:10.584Z,40.73
2023-01-25T20:58:56.930Z,33.33
2023-01-25T21:01:43.329Z,35.73
2023-01-25T21:04:29.892Z,39.33
2023-01-25T21:07:17.608Z,36.77
2023-01-25T21:10:03.989Z,38.90
2023-01-25T21:12:50.498Z,37.20
2023-01-25T21:15:38.409Z,44.23
2023-01-25T21:18:24.929Z,44.60
2023-01-25T21:21:13.482Z,39.10
2023-01-25T21:24:02.620Z,37.23
2023-01-25T21:26:48.997Z,40.00
2023-01-25T21:29:35.382Z,38.97
2023-01-25T21:32:23.369Z,41.00
2023-01-25T21:35:10.739Z,39.80
2023-01-25T21:37:57.743Z,40.23
2023-01-25T21:40:45.524Z,42.47
2023-01-25T21:43:53.117Z,37.77
2023-01-25T21:46:39.626Z,40.80
2023-01-25T21:49:43.613Z,42.03
2023-01-25T21:52:30.292Z,39.73
2023-01-25T21:55:16.907Z,37.70
2023-01-25T21:58:04.897Z,35.80
2023-01-25T22:00:51.283Z,43.47
2023-01-25T22:03:37.803Z,40.67
2023-01-25T22:06:24.200Z,38.93
2023-01-25T22:09:13.178Z,41.67
2023-01-25T22:11:59.873Z,42.27
2023-01-25T22:14:47.717Z,40.27
2023-01-25T22:17:34.457Z,36.53
2023-01-25T22:20:20.929Z,41.97
2023-01-25T22:23:07.311Z,38.53
2023-01-25T22:26:05.325Z,40.63
2023-01-25T22:28:53.225Z,45.60
2023-01-25T22:31:41.443Z,42.73
2023-01-25T22:34:28.104Z,41.20
2023-01-25T22:37:14.585Z,41.87
2023-01-25T22:40:00.956Z,38.07
2023-01-25T22:42:47.683Z,37.83
2023-01-25T22:45:34.417Z,38.03
2023-01-25T22:48:22.217Z,45.20
2023-01-25T22:51:11.001Z,43.07
2023-01-25T22:53:58.339Z,45.37
2023-01-25T22:56:44.718Z,46.07
2023-01-25T22:59:31.016Z,47.50
2023-01-25T23:02:17.389Z,46.23
2023-01-25T23:05:05.651Z,46.33
2023-01-25T23:07:52.072Z,45.27
2023-01-25T23:10:38.462Z,51.73
2023-01-25T23:13:24.956Z,49.40
2023-01-25T23:16:11.824Z,51.23
2023-01-25T23:18:57.746Z,52.10
2023-01-25T23:21:46.136Z,53.47
2023-01-25T23:24:32.449Z,44.73
2023-01-25T23:27:18.778Z,47.67
2023-01-25T23:30:07.179Z,47.90
2023-01-25T23:32:53.633Z,43.93
2023-01-25T23:35:40.046Z,55.17
2023-01-25T23:38:27.832Z,49.67
2023-01-25T23:41:15.095Z,54.07
2023-01-25T23:44:01.975Z,52.63
2023-01-25T23:46:49.196Z,49.93
2023-01-25T23:49:35.662Z,48.60
2023-01-25T23:52:22.033Z,51.33
2023-01-25T23:55:11.059Z,58.33
2023-01-25T23:57:57.849Z,51.43
